sensor_id;sensor_type;location;lat;lon;timestamp;P1;durP1;ratioP1;P2;durP2;ratioP2
57317;SDS011;43157;50.982;18.132;2023-06-10T00:01:29;27.00;;;15.70;;
57317;SDS011;43157;50.982;18.132;2023-06-10T00:03:55;26.00;;;15.60;;
57317;SDS011;43157;50.982;18.132;2023-06-10T00:06:21;26.60;;;16.00;;
57317;SDS011;43157;50.982;18.132;2023-06-10T00:08:50;29.30;;;16.50;;
57317;SDS011;43157;50.982;18.132;2023-06-10T00:11:16;27.10;;;15.50;;
57317;SDS011;43157;50.982;18.132;2023-06-10T00:13:42;25.10;;;15.80;;
57317;SDS011;43157;50.982;18.132;2023-06-10T00:16:09;23.30;;;15.00;;
57317;SDS011;43157;50.982;18.132;2023-06-10T00:18:35;26.30;;;15.70;;
57317;SDS011;43157;50.982;18.132;2023-06-10T00:21:04;24.00;;;15.70;;
57317;SDS011;43157;50.982;18.132;2023-06-10T00:23:30;24.00;;;15.20;;
57317;SDS011;43157;50.982;18.132;2023-06-10T00:26:00;26.90;;;16.40;;
57317;SDS011;43157;50.982;18.132;2023-06-10T00:28:25;21.70;;;14.60;;
57317;SDS011;43157;50.982;18.132;2023-06-10T00:30:52;26.10;;;16.40;;
57317;SDS011;43157;50.982;18.132;2023-06-10T00:33:18;25.20;;;16.20;;
57317;SDS011;43157;50.982;18.132;2023-06-10T00:35:44;28.90;;;16.20;;
57317;SDS011;43157;50.982;18.132;2023-06-10T00:38:10;28.50;;;16.20;;
57317;SDS011;43157;50.982;18.132;2023-06-10T00:40:40;25.00;;;15.60;;
57317;SDS011;43157;50.982;18.132;2023-06-10T00:43:06;24.40;;;17.00;;
57317;SDS011;43157;50.982;18.132;2023-06-10T00:45:33;27.50;;;16.10;;
57317;SDS011;43157;50.982;18.132;2023-06-10T00:48:02;30.00;;;17.50;;
57317;SDS011;43157;50.982;18.132;2023-06-10T00:50:28;26.00;;;16.60;;
57317;SDS011;43157;50.982;18.132;2023-06-10T00:52:54;26.10;;;16.20;;
57317;SDS011;43157;50.982;18.132;2023-06-10T00:55:20;28.00;;;17.90;;
57317;SDS011;43157;50.982;18.132;2023-06-10T00:57:47;25.20;;;17.70;;
57317;SDS011;43157;50.982;18.132;2023-06-10T01:00:16;26.10;;;18.00;;
57317;SDS011;43157;50.982;18.132;2023-06-10T01:02:43;25.40;;;16.70;;
57317;SDS011;43157;50.982;18.132;2023-06-10T01:05:09;23.70;;;16.20;;
57317;SDS011;43157;50.982;18.132;2023-06-10T01:07:48;24.40;;;17.20;;
57317;SDS011;43157;50.982;18.132;2023-06-10T01:13:11;27.50;;;17.40;;
57317;SDS011;43157;50.982;18.132;2023-06-10T01:15:37;26.60;;;17.50;;
57317;SDS011;43157;50.982;18.132;2023-06-10T01:18:04;29.20;;;18.30;;
57317;SDS011;43157;50.982;18.132;2023-06-10T01:20:34;28.30;;;18.10;;
57317;SDS011;43157;50.982;18.132;2023-06-10T01:23:05;26.70;;;17.40;;
57317;SDS011;43157;50.982;18.132;2023-06-10T01:25:31;29.10;;;18.20;;
57317;SDS011;43157;50.982;18.132;2023-06-10T01:33:34;27.80;;;18.20;;
57317;SDS011;43157;50.982;18.132;2023-06-10T01:36:02;26.20;;;18.60;;
57317;SDS011;43157;50.982;18.132;2023-06-10T01:38:30;31.20;;;19.00;;
57317;SDS011;43157;50.982;18.132;2023-06-10T01:41:11;29.20;;;19.10;;
57317;SDS011;43157;50.982;18.132;2023-06-10T01:43:38;29.80;;;18.50;;
57317;SDS011;43157;50.982;18.132;2023-06-10T01:46:05;31.40;;;19.00;;
57317;SDS011;43157;50.982;18.132;2023-06-10T01:48:32;25.60;;;18.30;;
57317;SDS011;43157;50.982;18.132;2023-06-10T01:50:58;30.20;;;19.00;;
57317;SDS011;43157;50.982;18.132;2023-06-10T01:53:24;26.90;;;17.40;;
57317;SDS011;43157;50.982;18.132;2023-06-10T01:55:50;27.20;;;18.30;;
57317;SDS011;43157;50.982;18.132;2023-06-10T01:58:16;26.10;;;18.60;;
57317;SDS011;43157;50.982;18.132;2023-06-10T02:00:43;28.00;;;17.40;;
57317;SDS011;43157;50.982;18.132;2023-06-10T02:03:09;28.20;;;18.20;;
57317;SDS011;43157;50.982;18.132;2023-06-10T02:05:35;28.00;;;17.70;;
57317;SDS011;43157;50.982;18.132;2023-06-10T02:08:01;23.90;;;16.30;;
57317;SDS011;43157;50.982;18.132;2023-06-10T02:10:28;28.90;;;17.70;;
57317;SDS011;43157;50.982;18.132;2023-06-10T02:12:54;28.00;;;17.00;;
57317;SDS011;43157;50.982;18.132;2023-06-10T02:15:20;26.70;;;16.60;;
57317;SDS011;43157;50.982;18.132;2023-06-10T02:17:46;29.50;;;18.10;;
57317;SDS011;43157;50.982;18.132;2023-06-10T02:20:14;26.90;;;16.90;;
57317;SDS011;43157;50.982;18.132;2023-06-10T02:22:40;26.30;;;17.20;;
57317;SDS011;43157;50.982;18.132;2023-06-10T02:25:06;26.00;;;16.70;;
57317;SDS011;43157;50.982;18.132;2023-06-10T02:27:33;27.10;;;15.80;;
57317;SDS011;43157;50.982;18.132;2023-06-10T02:29:59;21.80;;;15.40;;
57317;SDS011;43157;50.982;18.132;2023-06-10T02:32:25;22.10;;;15.90;;
57317;SDS011;43157;50.982;18.132;2023-06-10T02:34:51;23.70;;;16.30;;
57317;SDS011;43157;50.982;18.132;2023-06-10T02:37:17;29.40;;;16.30;;
57317;SDS011;43157;50.982;18.132;2023-06-10T02:39:44;24.50;;;15.90;;
57317;SDS011;43157;50.982;18.132;2023-06-10T02:42:10;27.20;;;16.20;;
57317;SDS011;43157;50.982;18.132;2023-06-10T02:44:36;28.20;;;17.00;;
57317;SDS011;43157;50.982;18.132;2023-06-10T02:47:02;24.70;;;16.80;;
57317;SDS011;43157;50.982;18.132;2023-06-10T02:49:28;25.20;;;16.70;;
57317;SDS011;43157;50.982;18.132;2023-06-10T02:51:55;25.80;;;15.90;;
57317;SDS011;43157;50.982;18.132;2023-06-10T02:54:23;25.10;;;15.90;;
57317;SDS011;43157;50.982;18.132;2023-06-10T02:56:50;28.40;;;16.70;;
57317;SDS011;43157;50.982;18.132;2023-06-10T02:59:17;28.70;;;17.60;;
57317;SDS011;43157;50.982;18.132;2023-06-10T03:01:43;29.60;;;16.70;;
57317;SDS011;43157;50.982;18.132;2023-06-10T03:04:09;28.30;;;16.80;;
57317;SDS011;43157;50.982;18.132;2023-06-10T03:06:38;24.60;;;16.40;;
57317;SDS011;43157;50.982;18.132;2023-06-10T03:09:06;27.60;;;16.30;;
57317;SDS011;43157;50.982;18.132;2023-06-10T03:11:35;25.70;;;16.20;;
57317;SDS011;43157;50.982;18.132;2023-06-10T03:14:01;25.60;;;16.70;;
57317;SDS011;43157;50.982;18.132;2023-06-10T03:16:27;27.40;;;16.60;;
57317;SDS011;43157;50.982;18.132;2023-06-10T03:18:53;27.10;;;16.80;;
57317;SDS011;43157;50.982;18.132;2023-06-10T03:21:20;26.60;;;16.90;;
57317;SDS011;43157;50.982;18.132;2023-06-10T03:23:46;24.80;;;16.60;;
57317;SDS011;43157;50.982;18.132;2023-06-10T03:26:12;23.90;;;16.60;;
57317;SDS011;43157;50.982;18.132;2023-06-10T03:28:40;27.20;;;16.50;;
57317;SDS011;43157;50.982;18.132;2023-06-10T03:31:06;22.10;;;15.60;;
57317;SDS011;43157;50.982;18.132;2023-06-10T03:33:32;27.60;;;16.90;;
57317;SDS011;43157;50.982;18.132;2023-06-10T03:35:58;25.90;;;16.30;;
57317;SDS011;43157;50.982;18.132;2023-06-10T03:38:25;23.50;;;16.40;;
57317;SDS011;43157;50.982;18.132;2023-06-10T03:40:51;24.90;;;15.80;;
57317;SDS011;43157;50.982;18.132;2023-06-10T03:43:17;25.40;;;16.50;;
57317;SDS011;43157;50.982;18.132;2023-06-10T03:45:43;23.00;;;14.00;;
57317;SDS011;43157;50.982;18.132;2023-06-10T03:48:09;24.80;;;15.40;;
57317;SDS011;43157;50.982;18.132;2023-06-10T03:50:36;23.80;;;15.60;;
57317;SDS011;43157;50.982;18.132;2023-06-10T03:53:02;25.80;;;17.30;;
57317;SDS011;43157;50.982;18.132;2023-06-10T03:55:28;24.80;;;14.90;;
57317;SDS011;43157;50.982;18.132;2023-06-10T03:57:55;23.30;;;14.30;;
57317;SDS011;43157;50.982;18.132;2023-06-10T04:14:09;20.30;;;13.00;;
57317;SDS011;43157;50.982;18.132;2023-06-10T04:16:35;20.70;;;14.50;;
57317;SDS011;43157;50.982;18.132;2023-06-10T04:19:01;18.40;;;13.30;;
57317;SDS011;43157;50.982;18.132;2023-06-10T04:21:26;19.90;;;13.90;;
57317;SDS011;43157;50.982;18.132;2023-06-10T04:23:52;19.50;;;13.50;;
57317;SDS011;43157;50.982;18.132;2023-06-10T04:26:19;20.20;;;12.90;;
57317;SDS011;43157;50.982;18.132;2023-06-10T04:28:44;22.80;;;13.70;;
57317;SDS011;43157;50.982;18.132;2023-06-10T04:31:11;18.30;;;12.80;;
57317;SDS011;43157;50.982;18.132;2023-06-10T04:33:37;17.40;;;11.70;;
57317;SDS011;43157;50.982;18.132;2023-06-10T04:36:03;20.20;;;12.70;;
57317;SDS011;43157;50.982;18.132;2023-06-10T04:38:32;21.40;;;12.70;;
57317;SDS011;43157;50.982;18.132;2023-06-10T04:40:58;19.30;;;12.30;;
57317;SDS011;43157;50.982;18.132;2023-06-10T04:43:24;21.90;;;12.80;;
57317;SDS011;43157;50.982;18.132;2023-06-10T04:45:50;18.60;;;13.20;;
57317;SDS011;43157;50.982;18.132;2023-06-10T04:48:16;20.10;;;12.90;;
57317;SDS011;43157;50.982;18.132;2023-06-10T04:50:43;19.70;;;12.60;;
57317;SDS011;43157;50.982;18.132;2023-06-10T04:53:09;21.60;;;13.80;;
57317;SDS011;43157;50.982;18.132;2023-06-10T04:55:35;21.10;;;13.80;;
57317;SDS011;43157;50.982;18.132;2023-06-10T04:58:01;20.80;;;12.90;;
57317;SDS011;43157;50.982;18.132;2023-06-10T05:00:28;21.80;;;13.60;;
57317;SDS011;43157;50.982;18.132;2023-06-10T05:02:54;20.40;;;13.20;;
57317;SDS011;43157;50.982;18.132;2023-06-10T05:05:21;19.70;;;13.00;;
57317;SDS011;43157;50.982;18.132;2023-06-10T05:07:47;19.20;;;12.80;;
57317;SDS011;43157;50.982;18.132;2023-06-10T05:10:13;19.70;;;12.30;;
57317;SDS011;43157;50.982;18.132;2023-06-10T05:12:40;19.40;;;12.20;;
57317;SDS011;43157;50.982;18.132;2023-06-10T05:15:07;19.40;;;12.90;;
57317;SDS011;43157;50.982;18.132;2023-06-10T05:17:33;22.30;;;12.50;;
57317;SDS011;43157;50.982;18.132;2023-06-10T05:20:02;18.40;;;11.20;;
57317;SDS011;43157;50.982;18.132;2023-06-10T05:22:29;18.40;;;10.90;;
57317;SDS011;43157;50.982;18.132;2023-06-10T05:24:55;17.90;;;10.80;;
57317;SDS011;43157;50.982;18.132;2023-06-10T05:27:21;19.70;;;11.10;;
57317;SDS011;43157;50.982;18.132;2023-06-10T05:29:47;19.20;;;10.80;;
57317;SDS011;43157;50.982;18.132;2023-06-10T05:32:14;22.00;;;10.30;;
57317;SDS011;43157;50.982;18.132;2023-06-10T05:34:40;16.10;;;9.90;;
57317;SDS011;43157;50.982;18.132;2023-06-10T05:37:06;18.30;;;10.80;;
57317;SDS011;43157;50.982;18.132;2023-06-10T05:39:32;17.90;;;10.00;;
57317;SDS011;43157;50.982;18.132;2023-06-10T05:41:58;18.80;;;10.00;;
57317;SDS011;43157;50.982;18.132;2023-06-10T05:44:26;16.20;;;9.40;;
57317;SDS011;43157;50.982;18.132;2023-06-10T05:46:52;15.50;;;9.00;;
57317;SDS011;43157;50.982;18.132;2023-06-10T05:49:19;15.90;;;8.40;;
57317;SDS011;43157;50.982;18.132;2023-06-10T05:51:45;15.70;;;7.60;;
57317;SDS011;43157;50.982;18.132;2023-06-10T05:54:11;13.30;;;7.20;;
57317;SDS011;43157;50.982;18.132;2023-06-10T05:56:37;13.90;;;8.40;;
57317;SDS011;43157;50.982;18.132;2023-06-10T05:59:04;12.50;;;6.90;;
57317;SDS011;43157;50.982;18.132;2023-06-10T06:01:30;15.60;;;7.20;;
57317;SDS011;43157;50.982;18.132;2023-06-10T06:03:56;13.10;;;5.80;;
57317;SDS011;43157;50.982;18.132;2023-06-10T06:06:22;12.10;;;7.00;;
57317;SDS011;43157;50.982;18.132;2023-06-10T06:08:49;11.00;;;5.40;;
57317;SDS011;43157;50.982;18.132;2023-06-10T06:11:15;11.40;;;6.10;;
57317;SDS011;43157;50.982;18.132;2023-06-10T06:13:41;14.00;;;6.60;;
57317;SDS011;43157;50.982;18.132;2023-06-10T06:16:07;13.30;;;7.10;;
57317;SDS011;43157;50.982;18.132;2023-06-10T06:18:34;14.30;;;6.50;;
57317;SDS011;43157;50.982;18.132;2023-06-10T06:21:00;12.40;;;7.10;;
57317;SDS011;43157;50.982;18.132;2023-06-10T06:23:26;14.80;;;7.80;;
57317;SDS011;43157;50.982;18.132;2023-06-10T06:25:52;13.50;;;7.70;;
57317;SDS011;43157;50.982;18.132;2023-06-10T06:28:18;15.80;;;8.10;;
57317;SDS011;43157;50.982;18.132;2023-06-10T06:30:46;14.60;;;7.90;;
57317;SDS011;43157;50.982;18.132;2023-06-10T06:33:13;16.30;;;8.20;;
57317;SDS011;43157;50.982;18.132;2023-06-10T06:35:39;14.40;;;8.30;;
57317;SDS011;43157;50.982;18.132;2023-06-10T06:38:05;14.70;;;7.90;;
57317;SDS011;43157;50.982;18.132;2023-06-10T06:40:31;14.20;;;8.10;;
57317;SDS011;43157;50.982;18.132;2023-06-10T06:42:58;13.70;;;7.90;;
57317;SDS011;43157;50.982;18.132;2023-06-10T06:45:24;14.70;;;7.40;;
57317;SDS011;43157;50.982;18.132;2023-06-10T06:47:50;14.10;;;7.70;;
57317;SDS011;43157;50.982;18.132;2023-06-10T06:50:16;15.50;;;7.70;;
57317;SDS011;43157;50.982;18.132;2023-06-10T06:52:43;12.60;;;7.60;;
57317;SDS011;43157;50.982;18.132;2023-06-10T06:55:09;14.60;;;8.00;;
57317;SDS011;43157;50.982;18.132;2023-06-10T06:57:35;14.90;;;8.90;;
57317;SDS011;43157;50.982;18.132;2023-06-10T07:00:02;12.20;;;7.10;;
57317;SDS011;43157;50.982;18.132;2023-06-10T07:02:28;14.70;;;6.90;;
57317;SDS011;43157;50.982;18.132;2023-06-10T07:04:54;11.20;;;6.40;;
57317;SDS011;43157;50.982;18.132;2023-06-10T07:07:21;12.80;;;6.00;;
57317;SDS011;43157;50.982;18.132;2023-06-10T07:09:47;13.20;;;6.80;;
57317;SDS011;43157;50.982;18.132;2023-06-10T07:12:13;12.50;;;6.30;;
57317;SDS011;43157;50.982;18.132;2023-06-10T07:14:40;14.60;;;7.40;;
57317;SDS011;43157;50.982;18.132;2023-06-10T07:17:06;14.20;;;6.40;;
57317;SDS011;43157;50.982;18.132;2023-06-10T07:19:32;12.30;;;7.60;;
57317;SDS011;43157;50.982;18.132;2023-06-10T07:21:58;12.10;;;7.20;;
57317;SDS011;43157;50.982;18.132;2023-06-10T07:24:24;12.90;;;7.20;;
57317;SDS011;43157;50.982;18.132;2023-06-10T07:26:51;14.80;;;8.40;;
57317;SDS011;43157;50.982;18.132;2023-06-10T07:29:17;16.40;;;8.80;;
57317;SDS011;43157;50.982;18.132;2023-06-10T07:31:43;14.20;;;8.60;;
57317;SDS011;43157;50.982;18.132;2023-06-10T07:34:09;14.30;;;8.60;;
57317;SDS011;43157;50.982;18.132;2023-06-10T07:36:35;13.30;;;7.90;;
57317;SDS011;43157;50.982;18.132;2023-06-10T07:39:02;14.70;;;6.80;;
57317;SDS011;43157;50.982;18.132;2023-06-10T07:41:28;12.60;;;7.30;;
57317;SDS011;43157;50.982;18.132;2023-06-10T07:43:54;10.60;;;4.80;;
57317;SDS011;43157;50.982;18.132;2023-06-10T07:46:22;14.30;;;6.00;;
57317;SDS011;43157;50.982;18.132;2023-06-10T07:48:48;12.00;;;6.80;;
57317;SDS011;43157;50.982;18.132;2023-06-10T07:51:15;13.00;;;6.40;;
57317;SDS011;43157;50.982;18.132;2023-06-10T07:53:41;13.60;;;6.80;;
57317;SDS011;43157;50.982;18.132;2023-06-10T07:56:08;14.70;;;7.20;;
57317;SDS011;43157;50.982;18.132;2023-06-10T07:58:34;12.00;;;6.70;;
57317;SDS011;43157;50.982;18.132;2023-06-10T08:01:00;14.50;;;6.80;;
57317;SDS011;43157;50.982;18.132;2023-06-10T08:03:26;12.50;;;7.10;;
57317;SDS011;43157;50.982;18.132;2023-06-10T08:05:52;13.60;;;7.20;;
57317;SDS011;43157;50.982;18.132;2023-06-10T08:08:19;14.80;;;7.40;;
57317;SDS011;43157;50.982;18.132;2023-06-10T08:10:45;12.80;;;7.80;;
57317;SDS011;43157;50.982;18.132;2023-06-10T08:13:11;13.70;;;5.90;;
57317;SDS011;43157;50.982;18.132;2023-06-10T08:15:37;14.70;;;6.20;;
57317;SDS011;43157;50.982;18.132;2023-06-10T08:18:04;13.60;;;6.00;;
57317;SDS011;43157;50.982;18.132;2023-06-10T08:20:30;12.00;;;6.30;;
57317;SDS011;43157;50.982;18.132;2023-06-10T08:22:56;10.90;;;5.10;;
57317;SDS011;43157;50.982;18.132;2023-06-10T08:25:22;10.60;;;5.10;;
57317;SDS011;43157;50.982;18.132;2023-06-10T08:27:48;10.10;;;4.80;;
57317;SDS011;43157;50.982;18.132;2023-06-10T08:30:16;11.00;;;5.20;;
57317;SDS011;43157;50.982;18.132;2023-06-10T08:32:43;10.70;;;5.90;;
57317;SDS011;43157;50.982;18.132;2023-06-10T08:35:09;9.60;;;5.20;;
57317;SDS011;43157;50.982;18.132;2023-06-10T08:37:35;10.80;;;4.70;;
57317;SDS011;43157;50.982;18.132;2023-06-10T08:40:02;9.50;;;4.70;;
57317;SDS011;43157;50.982;18.132;2023-06-10T08:42:33;12.10;;;4.40;;
57317;SDS011;43157;50.982;18.132;2023-06-10T08:45:02;9.40;;;4.00;;
57317;SDS011;43157;50.982;18.132;2023-06-10T08:47:29;10.60;;;4.20;;
57317;SDS011;43157;50.982;18.132;2023-06-10T08:50:02;8.80;;;3.90;;
57317;SDS011;43157;50.982;18.132;2023-06-10T08:52:33;10.30;;;4.80;;
57317;SDS011;43157;50.982;18.132;2023-06-10T08:55:04;10.30;;;3.90;;
57317;SDS011;43157;50.982;18.132;2023-06-10T08:57:34;7.90;;;4.00;;
57317;SDS011;43157;50.982;18.132;2023-06-10T09:00:01;10.40;;;4.30;;
57317;SDS011;43157;50.982;18.132;2023-06-10T09:02:28;9.90;;;4.10;;
57317;SDS011;43157;50.982;18.132;2023-06-10T09:04:55;8.20;;;3.80;;
57317;SDS011;43157;50.982;18.132;2023-06-10T09:07:22;9.10;;;3.80;;
57317;SDS011;43157;50.982;18.132;2023-06-10T09:09:49;9.00;;;4.10;;
57317;SDS011;43157;50.982;18.132;2023-06-10T09:12:15;8.20;;;3.60;;
57317;SDS011;43157;50.982;18.132;2023-06-10T09:14:44;10.90;;;4.20;;
57317;SDS011;43157;50.982;18.132;2023-06-10T09:17:10;9.70;;;4.60;;
57317;SDS011;43157;50.982;18.132;2023-06-10T09:19:36;10.00;;;4.60;;
57317;SDS011;43157;50.982;18.132;2023-06-10T09:22:04;9.50;;;4.60;;
57317;SDS011;43157;50.982;18.132;2023-06-10T09:24:30;9.60;;;4.30;;
57317;SDS011;43157;50.982;18.132;2023-06-10T09:27:06;9.30;;;4.60;;
57317;SDS011;43157;50.982;18.132;2023-06-10T09:32:28;10.30;;;4.90;;
57317;SDS011;43157;50.982;18.132;2023-06-10T09:34:55;11.40;;;5.40;;
57317;SDS011;43157;50.982;18.132;2023-06-10T09:37:22;9.90;;;5.20;;
57317;SDS011;43157;50.982;18.132;2023-06-10T09:40:05;10.40;;;5.70;;
57317;SDS011;43157;50.982;18.132;2023-06-10T09:42:33;11.80;;;5.50;;
57317;SDS011;43157;50.982;18.132;2023-06-10T09:45:01;13.80;;;6.30;;
57317;SDS011;43157;50.982;18.132;2023-06-10T09:47:28;11.80;;;5.20;;
57317;SDS011;43157;50.982;18.132;2023-06-10T09:49:54;10.90;;;5.30;;
57317;SDS011;43157;50.982;18.132;2023-06-10T09:52:21;11.00;;;5.60;;
57317;SDS011;43157;50.982;18.132;2023-06-10T09:54:48;13.40;;;6.10;;
57317;SDS011;43157;50.982;18.132;2023-06-10T09:57:15;11.80;;;5.70;;
57317;SDS011;43157;50.982;18.132;2023-06-10T09:59:42;11.60;;;5.40;;
57317;SDS011;43157;50.982;18.132;2023-06-10T10:02:14;10.00;;;5.80;;
57317;SDS011;43157;50.982;18.132;2023-06-10T10:04:43;13.30;;;6.90;;
57317;SDS011;43157;50.982;18.132;2023-06-10T10:07:10;11.60;;;6.50;;
57317;SDS011;43157;50.982;18.132;2023-06-10T10:09:40;11.20;;;6.60;;
57317;SDS011;43157;50.982;18.132;2023-06-10T10:12:11;11.90;;;6.00;;
57317;SDS011;43157;50.982;18.132;2023-06-10T10:14:38;14.00;;;6.60;;
57317;SDS011;43157;50.982;18.132;2023-06-10T10:17:09;11.30;;;6.30;;
57317;SDS011;43157;50.982;18.132;2023-06-10T10:19:37;12.20;;;6.40;;
57317;SDS011;43157;50.982;18.132;2023-06-10T10:22:10;15.10;;;7.20;;
57317;SDS011;43157;50.982;18.132;2023-06-10T10:25:00;14.50;;;7.00;;
57317;SDS011;43157;50.982;18.132;2023-06-10T10:27:28;11.90;;;6.70;;
57317;SDS011;43157;50.982;18.132;2023-06-10T10:29:57;13.40;;;6.10;;
57317;SDS011;43157;50.982;18.132;2023-06-10T10:32:44;15.80;;;6.80;;
57317;SDS011;43157;50.982;18.132;2023-06-10T10:35:19;13.50;;;7.40;;
57317;SDS011;43157;50.982;18.132;2023-06-10T10:37:51;12.70;;;6.90;;
57317;SDS011;43157;50.982;18.132;2023-06-10T10:40:18;13.00;;;7.10;;
57317;SDS011;43157;50.982;18.132;2023-06-10T10:42:45;14.80;;;7.00;;
57317;SDS011;43157;50.982;18.132;2023-06-10T10:45:11;12.60;;;7.30;;
57317;SDS011;43157;50.982;18.132;2023-06-10T10:47:37;12.50;;;6.90;;
57317;SDS011;43157;50.982;18.132;2023-06-10T10:50:17;11.50;;;7.10;;
57317;SDS011;43157;50.982;18.132;2023-06-10T10:52:59;12.90;;;6.90;;
57317;SDS011;43157;50.982;18.132;2023-06-10T10:55:26;11.20;;;7.40;;
57317;SDS011;43157;50.982;18.132;2023-06-10T10:57:56;14.90;;;7.40;;
57317;SDS011;43157;50.982;18.132;2023-06-10T11:05:35;12.60;;;7.10;;
57317;SDS011;43157;50.982;18.132;2023-06-10T11:08:08;11.50;;;6.70;;
57317;SDS011;43157;50.982;18.132;2023-06-10T11:13:14;12.60;;;7.00;;
57317;SDS011;43157;50.982;18.132;2023-06-10T11:15:45;12.50;;;6.80;;
57317;SDS011;43157;50.982;18.132;2023-06-10T11:18:25;16.20;;;7.60;;
57317;SDS011;43157;50.982;18.132;2023-06-10T11:21:07;10.90;;;6.50;;
57317;SDS011;43157;50.982;18.132;2023-06-10T11:23:42;12.60;;;6.80;;
57317;SDS011;43157;50.982;18.132;2023-06-10T11:26:29;11.70;;;6.80;;
57317;SDS011;43157;50.982;18.132;2023-06-10T11:31:26;11.40;;;5.70;;
57317;SDS011;43157;50.982;18.132;2023-06-10T11:34:01;11.30;;;5.40;;
57317;SDS011;43157;50.982;18.132;2023-06-10T11:36:32;9.10;;;4.60;;
57317;SDS011;43157;50.982;18.132;2023-06-10T11:39:00;11.00;;;5.70;;
57317;SDS011;43157;50.982;18.132;2023-06-10T11:41:28;10.60;;;6.20;;
57317;SDS011;43157;50.982;18.132;2023-06-10T11:43:54;13.40;;;7.30;;
57317;SDS011;43157;50.982;18.132;2023-06-10T11:46:23;12.00;;;6.70;;
57317;SDS011;43157;50.982;18.132;2023-06-10T11:48:52;13.20;;;6.30;;
57317;SDS011;43157;50.982;18.132;2023-06-10T11:51:19;13.40;;;6.70;;
57317;SDS011;43157;50.982;18.132;2023-06-10T11:53:47;10.20;;;5.70;;
57317;SDS011;43157;50.982;18.132;2023-06-10T11:56:13;12.60;;;5.80;;
57317;SDS011;43157;50.982;18.132;2023-06-10T11:58:55;13.70;;;6.90;;
57317;SDS011;43157;50.982;18.132;2023-06-10T12:01:23;12.60;;;6.10;;
57317;SDS011;43157;50.982;18.132;2023-06-10T12:03:59;9.80;;;5.60;;
57317;SDS011;43157;50.982;18.132;2023-06-10T12:06:27;12.30;;;5.60;;
57317;SDS011;43157;50.982;18.132;2023-06-10T12:08:53;10.50;;;5.30;;
57317;SDS011;43157;50.982;18.132;2023-06-10T12:11:20;13.20;;;6.20;;
57317;SDS011;43157;50.982;18.132;2023-06-10T12:13:47;10.50;;;5.50;;
57317;SDS011;43157;50.982;18.132;2023-06-10T12:16:14;9.20;;;5.40;;
57317;SDS011;43157;50.982;18.132;2023-06-10T12:18:42;11.20;;;5.10;;
57317;SDS011;43157;50.982;18.132;2023-06-10T12:21:19;9.40;;;4.60;;
57317;SDS011;43157;50.982;18.132;2023-06-10T12:26:42;9.00;;;4.70;;
57317;SDS011;43157;50.982;18.132;2023-06-10T12:29:22;7.70;;;3.30;;
57317;SDS011;43157;50.982;18.132;2023-06-10T12:32:00;9.50;;;3.20;;
57317;SDS011;43157;50.982;18.132;2023-06-10T12:34:29;9.90;;;4.30;;
57317;SDS011;43157;50.982;18.132;2023-06-10T12:36:55;7.00;;;2.90;;
57317;SDS011;43157;50.982;18.132;2023-06-10T12:39:21;8.40;;;3.10;;
57317;SDS011;43157;50.982;18.132;2023-06-10T12:41:48;8.90;;;3.20;;
57317;SDS011;43157;50.982;18.132;2023-06-10T12:44:15;10.60;;;3.20;;
57317;SDS011;43157;50.982;18.132;2023-06-10T12:46:41;7.90;;;3.00;;
57317;SDS011;43157;50.982;18.132;2023-06-10T12:49:07;9.90;;;3.10;;
57317;SDS011;43157;50.982;18.132;2023-06-10T12:51:33;9.80;;;3.30;;
57317;SDS011;43157;50.982;18.132;2023-06-10T12:54:01;8.10;;;2.60;;
57317;SDS011;43157;50.982;18.132;2023-06-10T12:56:27;8.80;;;3.00;;
57317;SDS011;43157;50.982;18.132;2023-06-10T12:58:53;7.60;;;2.50;;
57317;SDS011;43157;50.982;18.132;2023-06-10T13:01:19;13.10;;;2.70;;
57317;SDS011;43157;50.982;18.132;2023-06-10T13:03:45;11.10;;;2.80;;
57317;SDS011;43157;50.982;18.132;2023-06-10T13:06:12;8.30;;;2.60;;
57317;SDS011;43157;50.982;18.132;2023-06-10T13:08:38;6.90;;;2.70;;
57317;SDS011;43157;50.982;18.132;2023-06-10T13:11:04;7.90;;;2.80;;
57317;SDS011;43157;50.982;18.132;2023-06-10T13:13:30;11.20;;;3.20;;
57317;SDS011;43157;50.982;18.132;2023-06-10T13:15:56;8.50;;;2.90;;
57317;SDS011;43157;50.982;18.132;2023-06-10T13:18:23;8.10;;;2.90;;
57317;SDS011;43157;50.982;18.132;2023-06-10T13:20:49;10.20;;;3.50;;
57317;SDS011;43157;50.982;18.132;2023-06-10T13:23:15;10.60;;;3.10;;
57317;SDS011;43157;50.982;18.132;2023-06-10T13:25:41;6.70;;;2.40;;
57317;SDS011;43157;50.982;18.132;2023-06-10T13:28:10;9.70;;;2.60;;
57317;SDS011;43157;50.982;18.132;2023-06-10T13:30:37;11.60;;;2.60;;
57317;SDS011;43157;50.982;18.132;2023-06-10T13:33:03;9.40;;;2.70;;
57317;SDS011;43157;50.982;18.132;2023-06-10T13:35:29;5.40;;;2.00;;
57317;SDS011;43157;50.982;18.132;2023-06-10T13:37:56;10.10;;;2.50;;
57317;SDS011;43157;50.982;18.132;2023-06-10T13:40:22;7.80;;;2.30;;
57317;SDS011;43157;50.982;18.132;2023-06-10T13:42:48;7.10;;;2.60;;
57317;SDS011;43157;50.982;18.132;2023-06-10T13:45:16;8.80;;;2.20;;
57317;SDS011;43157;50.982;18.132;2023-06-10T13:47:42;8.60;;;2.50;;
57317;SDS011;43157;50.982;18.132;2023-06-10T13:50:08;8.00;;;2.40;;
57317;SDS011;43157;50.982;18.132;2023-06-10T13:52:35;6.20;;;2.30;;
57317;SDS011;43157;50.982;18.132;2023-06-10T13:55:01;6.70;;;2.10;;
57317;SDS011;43157;50.982;18.132;2023-06-10T13:57:27;11.60;;;2.70;;
57317;SDS011;43157;50.982;18.132;2023-06-10T13:59:53;7.90;;;2.30;;
57317;SDS011;43157;50.982;18.132;2023-06-10T14:02:21;7.60;;;2.20;;
57317;SDS011;43157;50.982;18.132;2023-06-10T14:04:47;12.40;;;2.40;;
57317;SDS011;43157;50.982;18.132;2023-06-10T14:07:13;10.40;;;3.00;;
57317;SDS011;43157;50.982;18.132;2023-06-10T14:09:40;9.00;;;2.20;;
57317;SDS011;43157;50.982;18.132;2023-06-10T14:12:06;7.00;;;2.10;;
57317;SDS011;43157;50.982;18.132;2023-06-10T14:14:33;7.10;;;1.90;;
57317;SDS011;43157;50.982;18.132;2023-06-10T14:16:59;9.80;;;2.70;;
57317;SDS011;43157;50.982;18.132;2023-06-10T14:19:25;7.40;;;2.50;;
57317;SDS011;43157;50.982;18.132;2023-06-10T14:21:51;7.80;;;2.40;;
57317;SDS011;43157;50.982;18.132;2023-06-10T14:24:19;9.40;;;2.80;;
57317;SDS011;43157;50.982;18.132;2023-06-10T14:26:45;10.70;;;2.90;;
57317;SDS011;43157;50.982;18.132;2023-06-10T14:29:11;8.20;;;2.40;;
57317;SDS011;43157;50.982;18.132;2023-06-10T14:31:40;8.50;;;2.60;;
57317;SDS011;43157;50.982;18.132;2023-06-10T14:34:06;7.30;;;2.20;;
57317;SDS011;43157;50.982;18.132;2023-06-10T14:36:33;8.80;;;2.50;;
57317;SDS011;43157;50.982;18.132;2023-06-10T14:39:00;10.00;;;2.60;;
57317;SDS011;43157;50.982;18.132;2023-06-10T14:41:26;12.40;;;2.60;;
57317;SDS011;43157;50.982;18.132;2023-06-10T14:43:52;9.10;;;2.70;;
57317;SDS011;43157;50.982;18.132;2023-06-10T14:46:18;7.50;;;2.60;;
57317;SDS011;43157;50.982;18.132;2023-06-10T14:48:46;10.90;;;2.90;;
57317;SDS011;43157;50.982;18.132;2023-06-10T14:51:12;9.60;;;3.30;;
57317;SDS011;43157;50.982;18.132;2023-06-10T14:53:38;11.20;;;2.70;;
57317;SDS011;43157;50.982;18.132;2023-06-10T14:56:04;8.10;;;2.90;;
57317;SDS011;43157;50.982;18.132;2023-06-10T14:58:31;7.50;;;2.20;;